sensor_id;sensor_type;location;lat;lon;timestamp;pressure;altitude;pressure_sealevel;temperature;humidity
66627;BME280;53498;50.422;14.912;2023-05-20T00:00:04;99687.78;;;11.25;100.00
66627;BME280;53498;50.422;14.912;2023-05-20T00:02:49;99686.88;;;11.21;100.00
66627;BME280;53498;50.422;14.912;2023-05-20T00:05:15;99684.28;;;11.21;100.00
66627;BME280;53498;50.422;14.912;2023-05-20T00:07:41;99678.22;;;11.24;100.00
66627;BME280;53498;50.422;14.912;2023-05-20T00:10:06;99672.19;;;11.26;100.00
66627;BME280;53498;50.422;14.912;2023-05-20T00:12:32;99664.34;;;11.25;100.00
66627;BME280;53498;50.422;14.912;2023-05-20T00:15:00;99668.72;;;11.26;100.00
66627;BME280;53498;50.422;14.912;2023-05-20T00:17:25;99673.91;;;11.27;100.00
66627;BME280;53498;50.422;14.912;2023-05-20T00:19:53;99680.00;;;11.26;100.00
66627;BME280;53498;50.422;14.912;2023-05-20T00:22:19;99681.72;;;11.27;100.00
66627;BME280;53498;50.422;14.912;2023-05-20T00:24:45;99680.91;;;11.33;100.00
66627;BME280;53498;50.422;14.912;2023-05-20T00:27:10;99686.16;;;11.39;100.00
66627;BME280;53498;50.422;14.912;2023-05-20T00:29:36;99682.69;;;11.40;100.00
66627;BME280;53498;50.422;14.912;2023-05-20T00:32:01;99691.38;;;11.42;100.00
66627;BME280;53498;50.422;14.912;2023-05-20T00:34:27;99690.53;;;11.46;100.00
66627;BME280;53498;50.422;14.912;2023-05-20T00:36:52;99691.38;;;11.39;100.00
66627;BME280;53498;50.422;14.912;2023-05-20T00:39:18;99690.53;;;11.45;100.00
66627;BME280;53498;50.422;14.912;2023-05-20T00:41:43;99684.41;;;11.40;100.00
66627;BME280;53498;50.422;14.912;2023-05-20T00:44:09;99690.50;;;11.39;100.00
66627;BME280;53498;50.422;14.912;2023-05-20T00:46:35;99680.03;;;11.34;100.00
66627;BME280;53498;50.422;14.912;2023-05-20T00:49:01;99686.13;;;11.31;100.00
66627;BME280;53498;50.422;14.912;2023-05-20T00:51:27;99687.81;;;11.29;100.00
66627;BME280;53498;50.422;14.912;2023-05-20T00:53:54;99681.72;;;11.27;100.00
66627;BME280;53498;50.422;14.912;2023-05-20T00:56:20;99691.31;;;11.33;100.00
66627;BME280;53498;50.422;14.912;2023-05-20T00:58:46;99687.00;;;11.37;100.00
66627;BME280;53498;50.422;14.912;2023-05-20T01:01:12;99682.66;;;11.35;100.00
66627;BME280;53498;50.422;14.912;2023-05-20T01:03:39;99674.81;;;11.32;100.00
66627;BME280;53498;50.422;14.912;2023-05-20T01:06:04;99674.78;;;11.26;100.00
66627;BME280;53498;50.422;14.912;2023-05-20T01:08:30;99673.03;;;11.24;100.00
66627;BME280;53498;50.422;14.912;2023-05-20T01:11:24;99679.94;;;11.20;100.00
66627;BME280;53498;50.422;14.912;2023-05-20T01:13:54;99683.44;;;11.22;100.00
66627;BME280;53498;50.422;14.912;2023-05-20T01:16:22;99683.50;;;11.28;100.00
66627;BME280;53498;50.422;14.912;2023-05-20T01:18:50;99681.75;;;11.30;100.00
66627;BME280;53498;50.422;14.912;2023-05-20T01:21:16;99684.38;;;11.32;100.00
66627;BME280;53498;50.422;14.912;2023-05-20T01:23:42;99685.25;;;11.34;100.00
66627;BME280;53498;50.422;14.912;2023-05-20T01:26:08;99684.34;;;11.30;100.00
66627;BME280;53498;50.422;14.912;2023-05-20T01:28:35;99679.16;;;11.33;100.00
66627;BME280;53498;50.422;14.912;2023-05-20T01:31:04;99678.31;;;11.31;100.00
66627;BME280;53498;50.422;14.912;2023-05-20T01:33:34;99673.94;;;11.29;100.00
66627;BME280;53498;50.422;14.912;2023-05-20T01:36:00;99680.00;;;11.29;100.00
66627;BME280;53498;50.422;14.912;2023-05-20T01:38:26;99673.03;;;11.27;100.00
66627;BME280;53498;50.422;14.912;2023-05-20T01:40:53;99679.16;;;11.32;100.00
66627;BME280;53498;50.422;14.912;2023-05-20T01:43:20;99668.75;;;11.33;100.00
66627;BME280;53498;50.422;14.912;2023-05-20T01:45:45;99663.53;;;11.33;100.00
66627;BME280;53498;50.422;14.912;2023-05-20T01:48:11;99664.41;;;11.32;100.00
66627;BME280;53498;50.422;14.912;2023-05-20T01:50:37;99655.69;;;11.27;100.00
66627;BME280;53498;50.422;14.912;2023-05-20T01:53:03;99651.38;;;11.32;100.00
66627;BME280;53498;50.422;14.912;2023-05-20T01:55:30;99648.75;;;11.26;100.00
66627;BME280;53498;50.422;14.912;2023-05-20T01:57:55;99642.66;;;11.27;100.00
66627;BME280;53498;50.422;14.912;2023-05-20T02:00:21;99647.91;;;11.29;100.00
66627;BME280;53498;50.422;14.912;2023-05-20T02:02:47;99650.50;;;11.33;100.00
66627;BME280;53498;50.422;14.912;2023-05-20T02:05:12;99649.63;;;11.28;100.00
66627;BME280;53498;50.422;14.912;2023-05-20T02:07:38;99643.47;;;11.22;100.00
66627;BME280;53498;50.422;14.912;2023-05-20T02:10:04;99644.34;;;11.16;100.00
66627;BME280;53498;50.422;14.912;2023-05-20T02:12:30;99636.50;;;11.15;100.00
66627;BME280;53498;50.422;14.912;2023-05-20T02:14:55;99633.97;;;11.22;100.00
66627;BME280;53498;50.422;14.912;2023-05-20T02:17:21;99634.78;;;11.18;100.00
66627;BME280;53498;50.422;14.912;2023-05-20T02:19:47;99640.88;;;11.16;100.00
66627;BME280;53498;50.422;14.912;2023-05-20T02:22:13;99630.44;;;11.14;100.00
66627;BME280;53498;50.422;14.912;2023-05-20T02:24:38;99634.75;;;11.12;100.00
66627;BME280;53498;50.422;14.912;2023-05-20T02:27:04;99632.13;;;11.07;100.00
66627;BME280;53498;50.422;14.912;2023-05-20T02:29:30;99622.59;;;11.09;100.00
66627;BME280;53498;50.422;14.912;2023-05-20T02:31:56;99623.44;;;11.08;100.00
66627;BME280;53498;50.422;14.912;2023-05-20T02:34:22;99622.56;;;11.03;100.00
66627;BME280;53498;50.422;14.912;2023-05-20T02:36:50;99629.44;;;11.00;100.00
66627;BME280;53498;50.422;14.912;2023-05-20T02:39:16;99624.22;;;10.97;100.00
66627;BME280;53498;50.422;14.912;2023-05-20T02:41:41;99617.34;;;11.05;100.00
66627;BME280;53498;50.422;14.912;2023-05-20T02:44:07;99617.25;;;10.93;100.00
66627;BME280;53498;50.422;14.912;2023-05-20T02:46:32;99620.72;;;10.92;100.00
66627;BME280;53498;50.422;14.912;2023-05-20T02:48:58;99617.28;;;10.96;100.00
66627;BME280;53498;50.422;14.912;2023-05-20T02:51:24;99619.78;;;10.82;100.00
66627;BME280;53498;50.422;14.912;2023-05-20T02:53:49;99618.88;;;10.77;100.00
66627;BME280;53498;50.422;14.912;2023-05-20T02:56:15;99605.03;;;10.79;100.00
66627;BME280;53498;50.422;14.912;2023-05-20T02:58:40;99613.72;;;10.81;100.00
66627;BME280;53498;50.422;14.912;2023-05-20T03:01:06;99610.19;;;10.78;100.00
66627;BME280;53498;50.422;14.912;2023-05-20T03:03:32;99607.63;;;10.81;100.00
66627;BME280;53498;50.422;14.912;2023-05-20T03:05:58;99601.53;;;10.80;100.00
66627;BME280;53498;50.422;14.912;2023-05-20T03:08:23;99594.59;;;10.79;100.00
66627;BME280;53498;50.422;14.912;2023-05-20T03:10:49;99594.59;;;10.79;100.00
66627;BME280;53498;50.422;14.912;2023-05-20T03:13:15;99592.91;;;10.81;100.00
66627;BME280;53498;50.422;14.912;2023-05-20T03:15:41;99605.06;;;10.85;100.00
66627;BME280;53498;50.422;14.912;2023-05-20T03:18:08;99609.41;;;10.89;100.00
66627;BME280;53498;50.422;14.912;2023-05-20T03:20:34;99610.38;;;10.98;100.00
66627;BME280;53498;50.422;14.912;2023-05-20T03:23:03;99610.38;;;10.98;100.00
66627;BME280;53498;50.422;14.912;2023-05-20T03:25:29;99612.06;;;10.94;100.00
66627;BME280;53498;50.422;14.912;2023-05-20T03:27:55;99612.91;;;10.90;100.00
66627;BME280;53498;50.422;14.912;2023-05-20T03:30:23;99612.13;;;11.00;100.00
66627;BME280;53498;50.422;14.912;2023-05-20T03:32:48;99609.50;;;10.99;100.00
66627;BME280;53498;50.422;14.912;2023-05-20T03:35:14;99610.28;;;10.90;100.00
66627;BME280;53498;50.422;14.912;2023-05-20T03:37:40;99621.63;;;10.94;100.00
66627;BME280;53498;50.422;14.912;2023-05-20T03:40:07;99614.75;;;11.03;100.00
66627;BME280;53498;50.422;14.912;2023-05-20T03:42:35;99612.13;;;11.02;100.00
66627;BME280;53498;50.422;14.912;2023-05-20T03:45:01;99606.09;;;11.12;100.00
66627;BME280;53498;50.422;14.912;2023-05-20T03:47:27;99607.84;;;11.11;100.00
66627;BME280;53498;50.422;14.912;2023-05-20T03:49:53;99611.34;;;11.14;100.00
66627;BME280;53498;50.422;14.912;2023-05-20T03:52:18;99617.41;;;11.14;100.00
66627;BME280;53498;50.422;14.912;2023-05-20T03:54:44;99609.59;;;11.13;100.00
66627;BME280;53498;50.422;14.912;2023-05-20T03:57:09;99613.06;;;11.15;100.00
66627;BME280;53498;50.422;14.912;2023-05-20T03:59:36;99613.06;;;11.15;100.00
66627;BME280;53498;50.422;14.912;2023-05-20T04:02:02;99615.66;;;11.10;100.00
66627;BME280;53498;50.422;14.912;2023-05-20T04:04:29;99626.06;;;11.10;100.00
66627;BME280;53498;50.422;14.912;2023-05-20T04:06:54;99632.13;;;11.12;100.00
66627;BME280;53498;50.422;14.912;2023-05-20T04:09:25;99633.09;;;11.25;100.00
66627;BME280;53498;50.422;14.912;2023-05-20T04:11:51;99645.34;;;11.35;100.00
66627;BME280;53498;50.422;14.912;2023-05-20T04:14:17;99648.78;;;11.34;100.00
66627;BME280;53498;50.422;14.912;2023-05-20T04:16:43;99645.34;;;11.40;100.00
66627;BME280;53498;50.422;14.912;2023-05-20T04:19:10;99645.34;;;11.43;100.00
66627;BME280;53498;50.422;14.912;2023-05-20T04:21:37;99640.16;;;11.43;100.00
66627;BME280;53498;50.422;14.912;2023-05-20T04:24:02;99634.13;;;11.56;100.00
66627;BME280;53498;50.422;14.912;2023-05-20T04:26:28;99641.19;;;11.75;100.00
66627;BME280;53498;50.422;14.912;2023-05-20T04:28:54;99636.13;;;12.04;97.20
66627;BME280;53498;50.422;14.912;2023-05-20T04:31:26;99635.31;;;12.22;95.27
66627;BME280;53498;50.422;14.912;2023-05-20T04:33:52;99635.34;;;12.53;92.92
66627;BME280;53498;50.422;14.912;2023-05-20T04:36:17;99639.69;;;12.36;93.64
66627;BME280;53498;50.422;14.912;2023-05-20T04:38:43;99627.50;;;12.41;94.59
66627;BME280;53498;50.422;14.912;2023-05-20T04:41:09;99631.84;;;12.33;94.27
66627;BME280;53498;50.422;14.912;2023-05-20T04:43:35;99631.88;;;12.74;92.55
66627;BME280;53498;50.422;14.912;2023-05-20T04:46:03;99628.41;;;12.73;92.81
66627;BME280;53498;50.422;14.912;2023-05-20T04:48:31;99624.94;;;12.73;91.98
66627;BME280;53498;50.422;14.912;2023-05-20T04:50:57;99625.78;;;12.67;92.52
66627;BME280;53498;50.422;14.912;2023-05-20T04:53:23;99622.31;;;12.81;92.91
66627;BME280;53498;50.422;14.912;2023-05-20T04:55:48;99623.19;;;12.89;92.15
66627;BME280;53498;50.422;14.912;2023-05-20T04:58:18;99622.31;;;13.07;91.33
66627;BME280;53498;50.422;14.912;2023-05-20T05:00:44;99627.50;;;13.24;88.74
66627;BME280;53498;50.422;14.912;2023-05-20T05:03:11;99628.38;;;13.23;89.17
66627;BME280;53498;50.422;14.912;2023-05-20T05:05:39;99636.25;;;13.01;90.12
66627;BME280;53498;50.422;14.912;2023-05-20T05:08:09;99633.63;;;13.00;91.65
66627;BME280;53498;50.422;14.912;2023-05-20T05:10:38;99635.34;;;12.87;92.69
66627;BME280;53498;50.422;14.912;2023-05-20T05:13:04;99628.41;;;12.73;92.80
66627;BME280;53498;50.422;14.912;2023-05-20T05:15:30;99619.69;;;12.81;92.62
66627;BME280;53498;50.422;14.912;2023-05-20T05:17:55;99622.31;;;12.96;91.45
66627;BME280;53498;50.422;14.912;2023-05-20T05:20:21;99628.38;;;13.18;90.14
66627;BME280;53498;50.422;14.912;2023-05-20T05:22:47;99624.03;;;13.26;89.62
66627;BME280;53498;50.422;14.912;2023-05-20T05:25:14;99618.81;;;13.31;88.94
66627;BME280;53498;50.422;14.912;2023-05-20T05:27:40;99616.19;;;13.18;89.67
66627;BME280;53498;50.422;14.912;2023-05-20T05:30:06;99618.81;;;13.29;89.98
66627;BME280;53498;50.422;14.912;2023-05-20T05:32:32;99613.56;;;13.18;91.00
66627;BME280;53498;50.422;14.912;2023-05-20T05:34:58;99614.44;;;13.17;93.02
66627;BME280;53498;50.422;14.912;2023-05-20T05:37:24;99612.72;;;13.32;91.23
66627;BME280;53498;50.422;14.912;2023-05-20T05:39:49;99610.06;;;13.46;90.53
66627;BME280;53498;50.422;14.912;2023-05-20T05:42:15;99604.88;;;13.33;91.16
66627;BME280;53498;50.422;14.912;2023-05-20T05:44:41;99604.00;;;13.30;91.19
66627;BME280;53498;50.422;14.912;2023-05-20T05:47:06;99614.38;;;13.60;90.95
66627;BME280;53498;50.422;14.912;2023-05-20T05:49:32;99605.53;;;13.84;87.76
66627;BME280;53498;50.422;14.912;2023-05-20T05:51:58;99612.41;;;14.05;86.82
66627;BME280;53498;50.422;14.912;2023-05-20T05:54:23;99613.22;;;14.20;86.80
66627;BME280;53498;50.422;14.912;2023-05-20T05:56:53;99606.94;;;14.51;83.48
66627;BME280;53498;50.422;14.912;2023-05-20T05:59:21;99606.09;;;14.45;84.57
66627;BME280;53498;50.422;14.912;2023-05-20T06:01:46;99605.25;;;14.35;84.66
66627;BME280;53498;50.422;14.912;2023-05-20T06:04:12;99598.53;;;15.14;80.80
66627;BME280;53498;50.422;14.912;2023-05-20T06:06:38;99591.25;;;16.12;75.40
66627;BME280;53498;50.422;14.912;2023-05-20T06:09:03;99592.66;;;16.92;69.87
66627;BME280;53498;50.422;14.912;2023-05-20T06:11:29;99602.06;;;17.95;66.79
66627;BME280;53498;50.422;14.912;2023-05-20T06:13:54;99596.84;;;16.49;71.29
66627;BME280;53498;50.422;14.912;2023-05-20T06:16:20;99597.41;;;17.64;67.60
66627;BME280;53498;50.422;14.912;2023-05-20T06:18:46;99590.25;;;16.21;72.21
66627;BME280;53498;50.422;14.912;2023-05-20T06:21:15;99600.22;;;16.54;71.00
66627;BME280;53498;50.422;14.912;2023-05-20T06:23:40;99602.53;;;16.77;70.99
66627;BME280;53498;50.422;14.912;2023-05-20T06:26:06;99598.91;;;17.32;71.26
66627;BME280;53498;50.422;14.912;2023-05-20T06:28:31;99593.28;;;17.96;65.49
66627;BME280;53498;50.422;14.912;2023-05-20T06:30:57;99600.84;;;17.24;67.94
66627;BME280;53498;50.422;14.912;2023-05-20T06:33:23;99600.78;;;16.76;72.07
66627;BME280;53498;50.422;14.912;2023-05-20T06:35:54;99594.34;;;16.38;73.87
66627;BME280;53498;50.422;14.912;2023-05-20T06:38:20;99601.44;;;16.33;74.07
66627;BME280;53498;50.422;14.912;2023-05-20T06:40:47;99602.84;;;16.56;73.39
66627;BME280;53498;50.422;14.912;2023-05-20T06:43:13;99591.44;;;16.00;75.29
66627;BME280;53498;50.422;14.912;2023-05-20T06:45:39;99582.47;;;16.13;78.19
66627;BME280;53498;50.422;14.912;2023-05-20T06:48:04;99579.31;;;16.48;74.48
66627;BME280;53498;50.422;14.912;2023-05-20T06:50:37;99577.50;;;16.55;74.37
66627;BME280;53498;50.422;14.912;2023-05-20T06:53:03;99563.78;;;16.90;75.33
66627;BME280;53498;50.422;14.912;2023-05-20T06:55:29;99572.13;;;17.57;73.34
66627;BME280;53498;50.422;14.912;2023-05-20T06:57:55;99571.44;;;17.49;70.87
66627;BME280;53498;50.422;14.912;2023-05-20T07:00:20;99566.13;;;17.05;71.77
66627;BME280;53498;50.422;14.912;2023-05-20T07:02:46;99566.19;;;17.02;74.30
66627;BME280;53498;50.422;14.912;2023-05-20T07:05:11;99566.88;;;17.12;73.01
66627;BME280;53498;50.422;14.912;2023-05-20T07:07:37;99561.41;;;17.24;72.38
66627;BME280;53498;50.422;14.912;2023-05-20T07:10:04;99557.50;;;17.44;71.49
66627;BME280;53498;50.422;14.912;2023-05-20T07:12:30;99551.69;;;17.28;72.86
66627;BME280;53498;50.422;14.912;2023-05-20T07:14:56;99551.59;;;17.77;72.85
66627;BME280;53498;50.422;14.912;2023-05-20T07:17:22;99555.94;;;17.78;72.97
66627;BME280;53498;50.422;14.912;2023-05-20T07:19:49;99547.00;;;17.86;70.82
66627;BME280;53498;50.422;14.912;2023-05-20T07:22:14;99548.94;;;17.77;70.76
66627;BME280;53498;50.422;14.912;2023-05-20T07:24:40;99553.72;;;17.57;71.75
66627;BME280;53498;50.422;14.912;2023-05-20T07:27:06;99544.31;;;17.45;72.11
66627;BME280;53498;50.422;14.912;2023-05-20T07:29:31;99534.34;;;17.61;72.12
66627;BME280;53498;50.422;14.912;2023-05-20T07:31:57;99532.53;;;17.63;71.61
66627;BME280;53498;50.422;14.912;2023-05-20T07:34:22;99529.75;;;17.71;70.01
66627;BME280;53498;50.422;14.912;2023-05-20T07:36:48;99522.22;;;17.96;69.76
66627;BME280;53498;50.422;14.912;2023-05-20T07:39:14;99528.78;;;18.15;68.69
66627;BME280;53498;50.422;14.912;2023-05-20T07:41:39;99529.41;;;18.61;68.02
66627;BME280;53498;50.422;14.912;2023-05-20T07:44:06;99536.53;;;18.93;65.64
66627;BME280;53498;50.422;14.912;2023-05-20T07:46:35;99550.28;;;19.04;64.72
66627;BME280;53498;50.422;14.912;2023-05-20T07:49:03;99537.50;;;18.89;64.49
66627;BME280;53498;50.422;14.912;2023-05-20T07:51:28;99536.66;;;18.88;65.22
66627;BME280;53498;50.422;14.912;2023-05-20T07:53:54;99530.59;;;19.49;65.32
66627;BME280;53498;50.422;14.912;2023-05-20T07:56:19;99529.78;;;19.78;62.47
66627;BME280;53498;50.422;14.912;2023-05-20T07:59:01;99530.25;;;19.91;63.78
66627;BME280;53498;50.422;14.912;2023-05-20T08:01:28;99534.13;;;19.48;62.68
66627;BME280;53498;50.422;14.912;2023-05-20T08:03:54;99533.19;;;19.50;63.01
66627;BME280;53498;50.422;14.912;2023-05-20T08:06:20;99533.28;;;19.47;63.46
66627;BME280;53498;50.422;14.912;2023-05-20T08:08:46;99528.22;;;19.39;63.42
66627;BME280;53498;50.422;14.912;2023-05-20T08:11:12;99526.28;;;19.15;63.72
66627;BME280;53498;50.422;14.912;2023-05-20T08:13:38;99526.28;;;19.46;63.52
66627;BME280;53498;50.422;14.912;2023-05-20T08:16:04;99513.16;;;20.02;63.05
66627;BME280;53498;50.422;14.912;2023-05-20T08:18:31;99507.34;;;20.19;61.48
66627;BME280;53498;50.422;14.912;2023-05-20T08:20:58;99509.34;;;20.39;60.06
66627;BME280;53498;50.422;14.912;2023-05-20T08:23:24;99515.03;;;19.99;61.24
66627;BME280;53498;50.422;14.912;2023-05-20T08:25:50;99513.41;;;20.23;60.93
66627;BME280;53498;50.422;14.912;2023-05-20T08:28:16;99503.19;;;19.84;60.99
66627;BME280;53498;50.422;14.912;2023-05-20T08:30:41;99509.75;;;19.39;63.04
66627;BME280;53498;50.422;14.912;2023-05-20T08:33:07;99507.81;;;19.76;62.84
66627;BME280;53498;50.422;14.912;2023-05-20T08:35:33;99509.53;;;19.77;62.17
66627;BME280;53498;50.422;14.912;2023-05-20T08:37:58;99501.00;;;19.69;64.09
66627;BME280;53498;50.422;14.912;2023-05-20T08:40:25;99495.72;;;19.69;63.24
66627;BME280;53498;50.422;14.912;2023-05-20T08:42:51;99492.88;;;19.45;64.92
66627;BME280;53498;50.422;14.912;2023-05-20T08:45:19;99490.88;;;19.53;64.37
66627;BME280;53498;50.422;14.912;2023-05-20T08:47:52;99503.19;;;19.84;64.60
66627;BME280;53498;50.422;14.912;2023-05-20T08:50:17;99502.94;;;19.62;64.73
66627;BME280;53498;50.422;14.912;2023-05-20T08:52:45;99495.22;;;19.85;65.07
66627;BME280;53498;50.422;14.912;2023-05-20T08:55:16;99497.84;;;20.14;64.15
66627;BME280;53498;50.422;14.912;2023-05-20T08:57:49;99502.75;;;20.52;62.31
66627;BME280;53498;50.422;14.912;2023-05-20T09:00:15;99500.16;;;20.49;61.49
66627;BME280;53498;50.422;14.912;2023-05-20T09:02:43;99492.38;;;20.98;60.42
66627;BME280;53498;50.422;14.912;2023-05-20T09:05:09;99487.81;;;20.51;60.62
66627;BME280;53498;50.422;14.912;2023-05-20T09:07:36;99501.13;;;20.75;59.99
66627;BME280;53498;50.422;14.912;2023-05-20T09:10:02;99495.09;;;21.20;59.91
66627;BME280;53498;50.422;14.912;2023-05-20T09:12:28;99488.91;;;20.96;60.39
66627;BME280;53498;50.422;14.912;2023-05-20T09:14:53;99499.16;;;20.80;59.21
66627;BME280;53498;50.422;14.912;2023-05-20T09:17:22;99493.09;;;20.78;59.89
66627;BME280;53498;50.422;14.912;2023-05-20T09:19:49;99492.44;;;21.20;60.00
66627;BME280;53498;50.422;14.912;2023-05-20T09:22:29;99482.09;;;21.14;57.92
66627;BME280;53498;50.422;14.912;2023-05-20T09:24:54;99477.97;;;21.30;59.23
66627;BME280;53498;50.422;14.912;2023-05-20T09:27:20;99479.00;;;21.49;56.89
66627;BME280;53498;50.422;14.912;2023-05-20T09:29:49;99484.88;;;21.34;57.04
66627;BME280;53498;50.422;14.912;2023-05-20T09:32:16;99490.56;;;21.23;57.39
66627;BME280;53498;50.422;14.912;2023-05-20T09:34:42;99484.91;;;21.58;57.89
66627;BME280;53498;50.422;14.912;2023-05-20T09:37:10;99478.78;;;21.56;56.59
66627;BME280;53498;50.422;14.912;2023-05-20T09:40:03;99491.63;;;21.66;56.71
66627;BME280;53498;50.422;14.912;2023-05-20T09:42:41;99468.81;;;21.40;57.92
66627;BME280;53498;50.422;14.912;2023-05-20T09:45:08;99477.66;;;21.14;58.71
66627;BME280;53498;50.422;14.912;2023-05-20T09:47:36;99471.88;;;21.52;57.30
66627;BME280;53498;50.422;14.912;2023-05-20T09:50:05;99480.44;;;21.82;55.88
66627;BME280;53498;50.422;14.912;2023-05-20T09:52:34;99465.28;;;22.07;55.71
66627;BME280;53498;50.422;14.912;2023-05-20T09:55:02;99472.78;;;21.96;56.26
66627;BME280;53498;50.422;14.912;2023-05-20T09:57:34;99469.16;;;21.77;55.30
66627;BME280;53498;50.422;14.912;2023-05-20T10:00:00;99468.06;;;21.59;56.26
66627;BME280;53498;50.422;14.912;2023-05-20T10:02:27;99466.69;;;21.72;54.81
66627;BME280;53498;50.422;14.912;2023-05-20T10:04:54;99462.44;;;21.68;56.69
66627;BME280;53498;50.422;14.912;2023-05-20T10:08:10;99458.81;;;21.92;55.48
66627;BME280;53498;50.422;14.912;2023-05-20T10:10:50;99464.53;;;21.60;56.63
66627;BME280;53498;50.422;14.912;2023-05-20T10:13:29;99441.53;;;21.38;56.77
66627;BME280;53498;50.422;14.912;2023-05-20T10:18:57;99447.91;;;21.56;57.00
66627;BME280;53498;50.422;14.912;2023-05-20T10:21:25;99450.31;;;21.62;57.28
66627;BME280;53498;50.422;14.912;2023-05-20T10:24:04;99435.34;;;21.83;56.37
66627;BME280;53498;50.422;14.912;2023-05-20T10:26:35;99436.31;;;22.03;57.03
66627;BME280;53498;50.422;14.912;2023-05-20T10:29:01;99440.38;;;22.33;56.27
66627;BME280;53498;50.422;14.912;2023-05-20T10:31:26;99448.19;;;22.36;54.73
66627;BME280;53498;50.422;14.912;2023-05-20T10:33:53;99430.03;;;22.27;54.72
66627;BME280;53498;50.422;14.912;2023-05-20T10:36:36;99444.91;;;22.52;54.76
66627;BME280;53498;50.422;14.912;2023-05-20T10:39:02;99435.19;;;22.30;54.22
66627;BME280;53498;50.422;14.912;2023-05-20T10:41:29;99431.28;;;22.18;54.10
66627;BME280;53498;50.422;14.912;2023-05-20T10:44:03;99426.09;;;21.93;54.45
66627;BME280;53498;50.422;14.912;2023-05-20T10:46:29;99418.81;;;21.99;54.75
66627;BME280;53498;50.422;14.912;2023-05-20T10:48:56;99428.31;;;22.04;54.84
66627;BME280;53498;50.422;14.912;2023-05-20T10:51:22;99420.50;;;22.23;55.42
66627;BME280;53498;50.422;14.912;2023-05-20T10:53:51;99415.34;;;22.61;53.53
66627;BME280;53498;50.422;14.912;2023-05-20T10:56:19;99411.44;;;22.70;54.50
66627;BME280;53498;50.422;14.912;2023-05-20T10:58:49;99419.44;;;22.89;53.68
66627;BME280;53498;50.422;14.912;2023-05-20T11:01:15;99411.34;;;22.92;52.79
66627;BME280;53498;50.422;14.912;2023-05-20T11:03:43;99408.06;;;22.66;53.71
66627;BME280;53498;50.422;14.912;2023-05-20T11:06:18;99410.03;;;22.40;54.71
66627;BME280;53498;50.422;14.912;2023-05-20T11:08:44;99405.78;;;22.16;55.29
66627;BME280;53498;50.422;14.912;2023-05-20T11:11:11;99390.09;;;22.52;55.46
66627;BME280;53498;50.422;14.912;2023-05-20T11:13:37;99391.34;;;22.44;55.89
66627;BME280;53498;50.422;14.912;2023-05-20T11:16:03;99402.94;;;22.82;53.94
66627;BME280;53498;50.422;14.912;2023-05-20T11:18:30;99378.63;;;22.52;55.09
66627;BME280;53498;50.422;14.912;2023-05-20T11:20:59;99383.47;;;22.42;54.95
66627;BME280;53498;50.422;14.912;2023-05-20T11:23:26;99406.78;;;22.95;53.29
66627;BME280;53498;50.422;14.912;2023-05-20T11:25:53;99392.19;;;22.85;53.23
66627;BME280;53498;50.422;14.912;2023-05-20T11:28:20;99397.69;;;22.80;53.75
66627;BME280;53498;50.422;14.912;2023-05-20T11:30:46;99395.03;;;22.80;54.13
66627;BME280;53498;50.422;14.912;2023-05-20T11:33:14;99383.75;;;22.96;54.22
66627;BME280;53498;50.422;14.912;2023-05-20T11:35:51;99377.66;;;22.94;54.24
66627;BME280;53498;50.422;14.912;2023-05-20T11:38:18;99385.97;;;23.05;53.51
66627;BME280;53498;50.422;14.912;2023-05-20T11:40:46;99389.28;;;22.71;55.24
66627;BME280;53498;50.422;14.912;2023-05-20T11:43:13;99385.41;;;22.78;53.62
66627;BME280;53498;50.422;14.912;2023-05-20T11:45:43;99377.84;;;22.69;54.08
66627;BME280;53498;50.422;14.912;2023-05-20T11:48:10;99371.44;;;22.93;54.86
66627;BME280;53498;50.422;14.912;2023-05-20T11:50:46;99362.72;;;22.91;54.58
66627;BME280;53498;50.422;14.912;2023-05-20T11:53:20;99369.75;;;23.49;53.84
66627;BME280;53498;50.422;14.912;2023-05-20T11:55:49;99374.38;;;23.63;51.52
66627;BME280;53498;50.422;14.912;2023-05-20T11:58:26;99377.19;;;23.23;51.78
66627;BME280;53498;50.422;14.912;2023-05-20T12:00:53;99378.53;;;23.13;51.92
66627;BME280;53498;50.422;14.912;2023-05-20T12:03:19;99368.34;;;23.23;51.33
66627;BME280;53498;50.422;14.912;2023-05-20T12:05:44;99364.19;;;23.17;51.93
66627;BME280;53498;50.422;14.912;2023-05-20T12:08:12;99358.03;;;23.17;52.52
66627;BME280;53498;50.422;14.912;2023-05-20T12:10:37;99359.97;;;23.32;51.53
66627;BME280;53498;50.422;14.912;2023-05-20T12:13:03;99359.44;;;23.43;50.31
66627;BME280;53498;50.422;14.912;2023-05-20T12:15:29;99350.97;;;23.35;50.65
66627;BME280;53498;50.422;14.912;2023-05-20T12:17:55;99342.09;;;23.36;49.83
66627;BME280;53498;50.422;14.912;2023-05-20T12:20:22;99355.97;;;23.41;49.40
66627;BME280;53498;50.422;14.912;2023-05-20T12:22:48;99331.69;;;23.67;48.17
66627;BME280;53498;50.422;14.912;2023-05-20T12:25:15;99348.66;;;23.46;49.25
66627;BME280;53498;50.422;14.912;2023-05-20T12:27:42;99349.41;;;23.86;47.33
66627;BME280;53498;50.422;14.912;2023-05-20T12:30:08;99332.63;;;23.66;49.75
66627;BME280;53498;50.422;14.912;2023-05-20T12:32:38;99324.63;;;23.85;48.54
66627;BME280;53498;50.422;14.912;2023-05-20T12:35:03;99325.66;;;23.64;48.83
66627;BME280;53498;50.422;14.912;2023-05-20T12:37:29;99326.25;;;23.70;48.28
66627;BME280;53498;50.422;14.912;2023-05-20T12:39:55;99322.91;;;23.48;47.83
66627;BME280;53498;50.422;14.912;2023-05-20T12:42:21;99324.50;;;23.33;49.40
66627;BME280;53498;50.422;14.912;2023-05-20T12:44:46;99328.44;;;23.43;48.69
66627;BME280;53498;50.422;14.912;2023-05-20T12:47:12;99330.56;;;23.54;48.62